createdAt,value
2022-11-16T00:00:32.743Z,9.13
2022-11-16T00:03:05.096Z,9.63
2022-11-16T00:05:33.508Z,9.33
2022-11-16T00:08:01.929Z,9.83
2022-11-16T00:10:30.412Z,7.40
2022-11-16T00:12:58.897Z,10.63
2022-11-16T00:15:27.745Z,9.73
2022-11-16T00:17:56.158Z,9.33
2022-11-16T00:20:26.103Z,9.30
2022-11-16T00:22:54.544Z,8.80
2022-11-16T00:25:22.964Z,9.70
2022-11-16T00:27:51.616Z,9.03
2022-11-16T00:30:20.181Z,10.43
2022-11-16T00:32:48.627Z,9.33
2022-11-16T00:35:17.101Z,10.20
2022-11-16T00:37:46.877Z,9.37
2022-11-16T00:40:16.319Z,11.53
2022-11-16T00:42:44.859Z,9.37
2022-11-16T00:45:13.478Z,11.03
2022-11-16T00:47:42.843Z,9.37
2022-11-16T00:50:11.412Z,9.27
2022-11-16T00:52:39.841Z,10.63
2022-11-16T00:55:11.064Z,9.20
2022-11-16T00:57:39.556Z,10.53
2022-11-16T01:00:10.037Z,10.33
2022-11-16T01:02:38.531Z,10.33
2022-11-16T01:05:08.821Z,9.70
2022-11-16T01:07:38.056Z,10.17
2022-11-16T01:10:12.881Z,11.23
2022-11-16T01:12:43.506Z,10.83
2022-11-16T01:15:12.170Z,9.83
2022-11-16T01:17:42.419Z,8.97
2022-11-16T01:20:15.957Z,11.20
2022-11-16T01:22:45.153Z,10.57
2022-11-16T01:25:16.303Z,13.00
2022-11-16T01:27:45.242Z,9.67
2022-11-16T01:30:20.754Z,10.77
2022-11-16T01:32:59.543Z,12.37
2022-11-16T01:35:27.974Z,10.17
2022-11-16T01:37:56.406Z,10.00
2022-11-16T01:40:28.925Z,10.47
2022-11-16T01:42:57.504Z,9.03
2022-11-16T01:45:38.438Z,11.63
2022-11-16T01:48:11.647Z,11.53
2022-11-16T01:50:40.662Z,12.70
2022-11-16T01:53:12.837Z,11.07
2022-11-16T01:55:50.856Z,12.57
2022-11-16T01:58:28.067Z,13.17
2022-11-16T02:01:02.254Z,11.80
2022-11-16T02:03:39.479Z,10.83
2022-11-16T02:06:40.574Z,12.50
2022-11-16T02:09:55.366Z,11.37
2022-11-16T02:12:54.073Z,10.27
2022-11-16T02:15:36.326Z,12.33
2022-11-16T02:18:35.379Z,12.13
2022-11-16T02:21:22.239Z,12.07
2022-11-16T02:24:12.105Z,13.97
2022-11-16T02:27:28.977Z,13.87
2022-11-16T02:29:59.166Z,16.23
2022-11-16T02:32:35.245Z,13.90
2022-11-16T02:35:11.118Z,16.40
2022-11-16T02:37:45.369Z,12.93
2022-11-16T02:40:18.466Z,15.37
2022-11-16T02:42:53.883Z,13.90
2022-11-16T02:45:28.824Z,18.87
2022-11-16T02:48:07.289Z,14.90
2022-11-16T02:50:37.930Z,16.50
2022-11-16T02:53:06.433Z,16.80
2022-11-16T02:55:37.968Z,16.77
2022-11-16T02:58:10.666Z,18.70
2022-11-16T03:00:49.394Z,17.17
2022-11-16T03:03:30.481Z,15.60
2022-11-16T03:06:08.677Z,17.93
2022-11-16T03:08:43.927Z,16.50
2022-11-16T03:11:31.274Z,16.13
2022-11-16T03:14:08.858Z,16.67
2022-11-16T03:16:45.524Z,18.13
2022-11-16T03:19:20.857Z,18.00
2022-11-16T03:21:57.240Z,19.33
2022-11-16T03:24:26.418Z,19.37
2022-11-16T03:27:06.615Z,16.33
2022-11-16T03:29:43.484Z,18.43
2022-11-16T03:32:21.677Z,19.73
2022-11-16T03:34:58.664Z,17.77
2022-11-16T03:37:31.034Z,19.13
2022-11-16T03:40:03.682Z,16.90
2022-11-16T03:42:35.204Z,17.97
2022-11-16T03:45:05.706Z,15.80
2022-11-16T03:47:35.509Z,17.57
2022-11-16T03:50:06.538Z,15.83
2022-11-16T03:52:36.416Z,15.53
2022-11-16T03:55:06.500Z,15.47
2022-11-16T03:57:36.940Z,14.67
2022-11-16T04:00:07.217Z,18.73
2022-11-16T04:02:43.301Z,15.63
2022-11-16T04:05:35.842Z,15.13
2022-11-16T04:08:23.240Z,19.00
2022-11-16T04:11:09.403Z,19.53
2022-11-16T04:13:56.345Z,20.43
2022-11-16T04:16:42.840Z,19.87
2022-11-16T04:19:30.308Z,23.00
2022-11-16T04:22:21.697Z,28.27
2022-11-16T04:24:56.822Z,25.50
2022-11-16T04:27:49.130Z,26.63
2022-11-16T04:30:18.615Z,25.23
2022-11-16T04:33:04.965Z,24.17
2022-11-16T04:35:52.777Z,26.33
2022-11-16T04:38:21.417Z,25.90
2022-11-16T04:40:49.844Z,25.30
2022-11-16T04:43:17.819Z,25.07
2022-11-16T04:46:04.679Z,27.37
2022-11-16T04:48:40.008Z,26.33
2022-11-16T04:51:10.504Z,26.77
2022-11-16T04:53:39.863Z,24.43
2022-11-16T04:56:16.776Z,25.23
2022-11-16T04:58:45.206Z,24.50
2022-11-16T05:01:13.956Z,26.73
2022-11-16T05:03:42.392Z,22.83
2022-11-16T05:06:12.324Z,23.23
2022-11-16T05:08:40.758Z,26.53
2022-11-16T05:11:09.322Z,23.50
2022-11-16T05:13:37.828Z,26.90
2022-11-16T05:16:07.045Z,27.90
2022-11-16T05:18:36.136Z,27.67
2022-11-16T05:21:04.536Z,25.33
2022-11-16T05:23:57.344Z,24.47
2022-11-16T05:26:30.601Z,25.90
2022-11-16T05:28:59.084Z,24.90
2022-11-16T05:31:28.022Z,26.77
2022-11-16T05:33:56.463Z,25.80
2022-11-16T05:36:25.360Z,26.37
2022-11-16T05:38:56.370Z,27.93
2022-11-16T05:41:29.074Z,26.63
2022-11-16T05:43:58.374Z,28.50
2022-11-16T05:46:28.012Z,28.17
2022-11-16T05:48:59.171Z,30.53
2022-11-16T05:51:28.632Z,29.73
2022-11-16T05:53:58.941Z,30.17
2022-11-16T05:56:28.436Z,29.40
2022-11-16T05:58:57.588Z,33.23
2022-11-16T06:01:27.349Z,27.17
2022-11-16T06:03:56.733Z,29.00
2022-11-16T06:06:25.340Z,33.17
2022-11-16T06:08:54.287Z,27.30
2022-11-16T06:11:34.332Z,29.33
2022-11-16T06:14:05.465Z,27.83
2022-11-16T06:16:35.272Z,31.73
2022-11-16T06:19:08.554Z,29.50
2022-11-16T06:21:37.820Z,27.97
2022-11-16T06:24:10.340Z,29.97
2022-11-16T06:26:40.176Z,33.13
2022-11-16T06:29:08.647Z,30.40
2022-11-16T06:31:37.320Z,34.20
2022-11-16T06:34:05.876Z,30.27
2022-11-16T06:36:35.105Z,30.53
2022-11-16T06:39:04.112Z,26.10
2022-11-16T06:41:41.087Z,29.60
2022-11-16T06:44:12.509Z,28.13
2022-11-16T06:46:48.578Z,29.80
2022-11-16T06:49:17.169Z,33.10
2022-11-16T06:51:46.637Z,33.27
2022-11-16T06:54:15.498Z,32.10
2022-11-16T06:56:44.378Z,29.53
2022-11-16T06:59:14.333Z,31.30
2022-11-16T07:01:44.475Z,28.50
2022-11-16T07:04:15.907Z,30.60
2022-11-16T07:06:50.885Z,28.87
2022-11-16T07:09:20.164Z,31.00
2022-11-16T07:11:49.774Z,29.37
2022-11-16T07:14:21.311Z,25.70
2022-11-16T07:16:54.877Z,30.07
2022-11-16T07:19:26.484Z,27.60
2022-11-16T07:21:54.909Z,29.90
2022-11-16T07:24:24.113Z,27.33
2022-11-16T07:26:52.568Z,27.53
2022-11-16T07:29:28.513Z,31.03
2022-11-16T07:32:10.518Z,25.03
2022-11-16T07:35:05.801Z,26.33
2022-11-16T07:37:34.339Z,28.87
2022-11-16T07:40:03.329Z,23.97
2022-11-16T07:42:32.617Z,30.27
2022-11-16T07:45:21.101Z,25.93
2022-11-16T07:47:55.173Z,30.27
2022-11-16T07:50:44.570Z,28.60
2022-11-16T07:53:13.043Z,29.23
2022-11-16T07:55:41.728Z,29.27
2022-11-16T07:58:11.114Z,27.63
2022-11-16T08:00:41.664Z,27.10
2022-11-16T08:03:20.498Z,25.57
2022-11-16T08:06:01.092Z,27.30
2022-11-16T08:08:30.395Z,25.73
2022-11-16T08:11:01.577Z,28.13
2022-11-16T08:13:33.945Z,30.57
2022-11-16T08:16:07.906Z,28.47
2022-11-16T08:18:37.433Z,28.33
2022-11-16T08:21:08.746Z,25.93
2022-11-16T08:23:37.716Z,26.47
2022-11-16T08:26:09.363Z,28.30
2022-11-16T08:28:39.447Z,25.93
2022-11-16T08:31:13.730Z,33.20
2022-11-16T08:33:43.632Z,25.83
2022-11-16T08:36:17.376Z,27.97
2022-11-16T08:38:48.935Z,26.47
2022-11-16T08:41:19.245Z,28.57
2022-11-16T08:43:50.487Z,30.63
2022-11-16T08:46:22.703Z,27.70
2022-11-16T08:48:57.909Z,28.00
2022-11-16T08:51:27.550Z,36.07
2022-11-16T08:54:03.670Z,32.63
2022-11-16T08:56:33.687Z,28.73
2022-11-16T08:59:02.161Z,31.73
2022-11-16T09:01:33.432Z,31.03
2022-11-16T09:04:01.966Z,30.17
2022-11-16T09:06:30.529Z,30.57
2022-11-16T09:08:59.207Z,32.70
2022-11-16T09:11:27.877Z,31.70
2022-11-16T09:13:58.888Z,35.80
2022-11-16T09:16:27.899Z,31.57
2022-11-16T09:18:57.700Z,32.07
2022-11-16T09:21:29.502Z,33.00
2022-11-16T09:23:59.133Z,30.93
2022-11-16T09:26:28.519Z,31.83
2022-11-16T09:28:59.084Z,33.27
2022-11-16T09:31:28.315Z,32.40
2022-11-16T09:33:59.711Z,36.10
2022-11-16T09:36:29.479Z,33.23
2022-11-16T09:39:29.971Z,32.13
2022-11-16T09:42:10.923Z,30.20
2022-11-16T09:45:04.808Z,35.23
2022-11-16T09:47:46.397Z,32.37
2022-11-16T09:50:35.046Z,31.50
2022-11-16T09:53:21.101Z,31.13
2022-11-16T09:55:53.812Z,29.00
2022-11-16T09:58:31.729Z,30.50
2022-11-16T10:01:06.942Z,30.37
2022-11-16T10:03:43.690Z,32.27
2022-11-16T10:06:23.196Z,31.43
2022-11-16T10:08:56.576Z,35.00
2022-11-16T10:11:48.806Z,30.13
2022-11-16T10:14:41.751Z,33.00
2022-11-16T10:17:27.273Z,29.33
2022-11-16T10:20:01.774Z,32.13
2022-11-16T10:22:45.098Z,39.03
2022-11-16T10:25:20.443Z,31.27
2022-11-16T10:28:17.202Z,32.70
2022-11-16T10:30:59.677Z,36.07
2022-11-16T10:33:35.658Z,35.93
2022-11-16T10:36:14.484Z,35.93
2022-11-16T10:38:45.501Z,32.37
2022-11-16T10:41:24.674Z,35.20
2022-11-16T10:43:53.465Z,37.80
2022-11-16T10:46:27.445Z,34.83
2022-11-16T10:49:08.523Z,36.87
2022-11-16T10:51:36.958Z,35.57
2022-11-16T10:54:15.155Z,37.00
2022-11-16T10:56:46.669Z,35.67
2022-11-16T10:59:19.447Z,38.87
2022-11-16T11:01:50.872Z,30.83
2022-11-16T11:04:23.595Z,36.00
2022-11-16T11:06:54.892Z,34.93
2022-11-16T11:09:29.797Z,39.33
2022-11-16T11:12:23.118Z,37.20
2022-11-16T11:15:02.611Z,33.67
2022-11-16T11:17:33.482Z,35.60
2022-11-16T11:20:05.536Z,35.53
2022-11-16T11:22:42.697Z,35.20
2022-11-16T11:25:22.891Z,34.50
2022-11-16T11:27:53.983Z,33.90
2022-11-16T11:30:23.339Z,36.67
2022-11-16T11:32:52.901Z,37.00
2022-11-16T11:35:27.875Z,40.30
2022-11-16T11:38:06.284Z,33.87
2022-11-16T11:40:37.394Z,35.83
2022-11-16T11:43:07.427Z,37.90
2022-11-16T11:45:49.500Z,33.73
2022-11-16T11:48:35.585Z,37.57
2022-11-16T11:51:13.094Z,37.60
2022-11-16T11:53:56.077Z,39.23
2022-11-16T11:56:28.703Z,38.43
2022-11-16T11:58:58.052Z,37.03
2022-11-16T12:02:06.454Z,37.83
2022-11-16T12:05:28.221Z,33.57
2022-11-16T12:08:21.190Z,37.57
2022-11-16T12:10:56.213Z,34.80
2022-11-16T12:13:57.784Z,32.13
2022-11-16T12:16:37.691Z,34.53
2022-11-16T12:19:37.256Z,35.93
2022-11-16T12:22:20.749Z,36.87
2022-11-16T12:25:16.485Z,35.57
2022-11-16T12:27:58.197Z,37.63
2022-11-16T12:30:28.520Z,36.10
2022-11-16T12:33:14.699Z,31.97
2022-11-16T12:35:57.897Z,36.33
2022-11-16T12:38:54.588Z,38.73
2022-11-16T12:41:55.164Z,34.03
2022-11-16T12:44:36.311Z,36.83
2022-11-16T12:47:22.635Z,33.53
2022-11-16T12:50:20.366Z,31.23
2022-11-16T12:53:16.457Z,33.80
2022-11-16T12:56:00.164Z,31.80
2022-11-16T12:58:53.696Z,34.07
2022-11-16T13:01:32.780Z,35.00
2022-11-16T13:04:10.079Z,36.27
2022-11-16T13:06:48.968Z,36.00
2022-11-16T13:09:22.703Z,36.57
2022-11-16T13:11:55.632Z,35.30
2022-11-16T13:14:31.793Z,35.97
2022-11-16T13:17:04.192Z,35.70
2022-11-16T13:19:40.312Z,36.23
2022-11-16T13:22:18.774Z,35.10
2022-11-16T13:24:58.763Z,36.17
2022-11-16T13:27:40.314Z,33.00
2022-11-16T13:30:21.262Z,34.80
2022-11-16T13:33:20.088Z,34.30
2022-11-16T13:35:51.628Z,35.00
2022-11-16T13:38:52.207Z,37.90
2022-11-16T13:41:34.697Z,32.20
2022-11-16T13:44:05.451Z,31.60
2022-11-16T13:47:02.013Z,30.77
2022-11-16T13:49:36.379Z,29.83
2022-11-16T13:52:31.723Z,32.10
2022-11-16T13:55:13.812Z,32.47
2022-11-16T13:57:52.585Z,33.63
2022-11-16T14:00:25.239Z,36.30
2022-11-16T14:03:29.911Z,35.50
2022-11-16T14:05:58.437Z,39.20
2022-11-16T14:08:51.445Z,38.53
2022-11-16T14:11:33.436Z,36.43
2022-11-16T14:14:05.628Z,40.30
2022-11-16T14:16:50.146Z,41.33
2022-11-16T14:19:55.009Z,37.23
2022-11-16T14:22:58.167Z,40.57
2022-11-16T14:25:39.422Z,40.37
2022-11-16T14:28:28.427Z,43.70
2022-11-16T14:31:15.154Z,41.80
2022-11-16T14:33:44.065Z,39.03
2022-11-16T14:36:12.743Z,38.07
2022-11-16T14:38:44.593Z,36.23
2022-11-16T14:41:23.203Z,41.53
2022-11-16T14:43:56.265Z,42.03
2022-11-16T14:46:29.038Z,33.43
2022-11-16T14:49:02.032Z,38.33
2022-11-16T14:51:36.108Z,39.80
2022-11-16T14:54:17.238Z,40.83
2022-11-16T14:57:02.136Z,35.00
2022-11-16T14:59:32.508Z,41.63
2022-11-16T15:02:13.667Z,41.17
2022-11-16T15:04:42.175Z,40.40
2022-11-16T15:07:15.394Z,47.47
2022-11-16T15:09:50.340Z,40.73
2022-11-16T15:12:43.978Z,41.90
2022-11-16T15:15:19.559Z,42.90
2022-11-16T15:18:06.982Z,42.90
2022-11-16T15:20:38.148Z,46.33
2022-11-16T15:23:15.075Z,46.50
2022-11-16T15:25:46.761Z,44.77
2022-11-16T15:28:21.618Z,50.80
2022-11-16T15:30:53.770Z,48.93
2022-11-16T15:33:27.739Z,51.70
2022-11-16T15:35:57.453Z,50.37
2022-11-16T15:38:30.006Z,51.10
2022-11-16T15:41:02.241Z,52.27
2022-11-16T15:43:45.068Z,51.37
2022-11-16T15:46:19.362Z,51.93
2022-11-16T15:48:48.653Z,53.80
2022-11-16T15:51:20.193Z,54.97
2022-11-16T15:53:51.188Z,53.13
2022-11-16T15:56:30.546Z,57.27
2022-11-16T15:59:10.641Z,54.43
2022-11-16T16:01:43.993Z,56.30
2022-11-16T16:04:18.421Z,53.10
2022-11-16T16:06:49.974Z,50.63
2022-11-16T16:09:28.654Z,60.23
2022-11-16T16:12:18.110Z,53.53
2022-11-16T16:14:49.988Z,53.93
2022-11-16T16:17:26.055Z,56.83
2022-11-16T16:19:57.479Z,52.70
2022-11-16T16:22:30.164Z,53.33
2022-11-16T16:24:59.068Z,55.43
2022-11-16T16:27:30.015Z,47.77
2022-11-16T16:30:06.124Z,51.87
2022-11-16T16:32:37.906Z,51.43
2022-11-16T16:35:09.677Z,50.13
2022-11-16T16:37:38.088Z,48.50
2022-11-16T16:40:08.750Z,73.37
2022-11-16T16:42:37.333Z,54.50
2022-11-16T16:45:15.087Z,55.53
2022-11-16T16:47:43.568Z,53.43
2022-11-16T16:50:12.056Z,45.43
2022-11-16T16:52:40.786Z,62.40
2022-11-16T16:55:10.098Z,57.47
2022-11-16T16:57:38.532Z,49.40
2022-11-16T17:00:11.603Z,54.67
2022-11-16T17:02:40.045Z,58.10
2022-11-16T17:05:09.831Z,56.53
2022-11-16T17:07:38.333Z,54.43
2022-11-16T17:10:07.774Z,53.20
2022-11-16T17:12:36.449Z,60.60
2022-11-16T17:15:05.408Z,49.80
2022-11-16T17:17:36.513Z,54.60
2022-11-16T17:20:06.097Z,57.90
2022-11-16T17:22:35.655Z,69.07
2022-11-16T17:25:04.648Z,62.83
2022-11-16T17:27:33.379Z,110.43
2022-11-16T17:30:02.342Z,57.23
2022-11-16T17:32:31.319Z,49.90
2022-11-16T17:35:01.056Z,57.40
2022-11-16T17:37:29.501Z,46.90
2022-11-16T17:39:58.086Z,94.80
2022-11-16T17:42:26.585Z,62.80
2022-11-16T17:44:55.148Z,50.47
2022-11-16T17:47:23.579Z,94.47
2022-11-16T17:49:52.015Z,58.13
2022-11-16T17:52:21.784Z,42.70
2022-11-16T17:54:50.249Z,41.27
2022-11-16T17:57:18.669Z,38.67
2022-11-16T17:59:47.755Z,59.70
2022-11-16T18:02:16.228Z,66.93
2022-11-16T18:04:50.736Z,34.97
2022-11-16T18:07:20.959Z,53.23
2022-11-16T18:09:49.729Z,37.23
2022-11-16T18:12:18.225Z,33.80
2022-11-16T18:15:06.288Z,39.33
2022-11-16T18:17:36.219Z,29.70
2022-11-16T18:20:06.941Z,33.20
2022-11-16T18:22:36.724Z,32.73
2022-11-16T18:25:06.934Z,29.80
2022-11-16T18:27:35.422Z,35.90
2022-11-16T18:30:04.369Z,29.73
2022-11-16T18:32:33.460Z,28.80
2022-11-16T18:35:01.885Z,28.53
2022-11-16T18:37:30.377Z,30.10
2022-11-16T18:40:00.112Z,28.43
2022-11-16T18:42:28.705Z,29.87
2022-11-16T18:44:57.228Z,32.57
2022-11-16T18:47:25.632Z,29.47
2022-11-16T18:49:54.046Z,29.23
2022-11-16T18:52:22.614Z,30.93
2022-11-16T18:54:51.053Z,29.90
2022-11-16T18:57:20.865Z,26.10
2022-11-16T18:59:49.295Z,27.20
2022-11-16T19:02:17.690Z,25.10
2022-11-16T19:04:46.109Z,25.87
2022-11-16T19:07:15.141Z,26.77
2022-11-16T19:09:43.676Z,27.60
2022-11-16T19:12:12.482Z,22.60
2022-11-16T19:14:42.265Z,26.93
2022-11-16T19:17:10.752Z,26.53
2022-11-16T19:19:39.389Z,22.80
2022-11-16T19:22:07.867Z,22.63
2022-11-16T19:24:36.287Z,26.23
2022-11-16T19:27:04.794Z,22.13
2022-11-16T19:29:33.232Z,20.20
2022-11-16T19:32:02.986Z,20.00
2022-11-16T19:34:33.474Z,22.47
2022-11-16T19:37:02.188Z,21.13
2022-11-16T19:39:30.845Z,20.30
2022-11-16T19:41:59.235Z,22.57
2022-11-16T19:44:27.677Z,22.57
2022-11-16T19:46:56.853Z,22.20
2022-11-16T19:49:26.848Z,20.70
2022-11-16T19:51:55.239Z,16.57
2022-11-16T19:54:23.696Z,17.23
2022-11-16T19:56:55.251Z,19.07
2022-11-16T19:59:23.846Z,19.40
2022-11-16T20:01:52.290Z,18.27
2022-11-16T20:04:20.736Z,37.10
2022-11-16T20:06:50.710Z,54.87
2022-11-16T20:09:19.171Z,21.20
2022-11-16T20:11:47.600Z,34.77
2022-11-16T20:14:16.074Z,25.57
2022-11-16T20:16:49.694Z,22.53
2022-11-16T20:19:20.442Z,44.67
2022-11-16T20:21:50.238Z,19.77
2022-11-16T20:24:19.544Z,17.50
2022-11-16T20:26:50.305Z,14.53
2022-11-16T20:29:20.269Z,14.77
2022-11-16T20:31:48.936Z,18.27
2022-11-16T20:34:20.281Z,14.00
2022-11-16T20:36:51.524Z,14.43
2022-11-16T20:39:22.102Z,16.77
2022-11-16T20:41:50.722Z,13.33
2022-11-16T20:44:22.137Z,15.63
2022-11-16T20:46:52.519Z,13.30
2022-11-16T20:49:21.264Z,14.07
2022-11-16T20:51:51.567Z,17.03
2022-11-16T20:54:20.998Z,15.23
2022-11-16T20:56:50.447Z,14.80
2022-11-16T20:59:19.380Z,14.33
2022-11-16T21:01:48.787Z,13.57
2022-11-16T21:04:17.596Z,13.00
2022-11-16T21:06:46.157Z,17.30
2022-11-16T21:09:22.276Z,13.67
2022-11-16T21:12:08.672Z,14.40
2022-11-16T21:14:37.116Z,14.90
2022-11-16T21:17:05.607Z,16.47
2022-11-16T21:19:34.056Z,15.57
2022-11-16T21:22:02.455Z,15.30
2022-11-16T21:24:32.265Z,16.40
2022-11-16T21:27:00.731Z,12.87
2022-11-16T21:29:30.370Z,13.17
2022-11-16T21:31:58.770Z,12.40
2022-11-16T21:34:28.590Z,15.07
2022-11-16T21:36:57.027Z,15.27
2022-11-16T21:39:25.649Z,16.13
2022-11-16T21:41:55.381Z,14.20
2022-11-16T21:44:23.808Z,16.50
2022-11-16T21:46:53.327Z,16.23
2022-11-16T21:49:21.739Z,13.40
2022-11-16T21:51:50.138Z,17.73
2022-11-16T21:54:19.084Z,16.50
2022-11-16T21:56:47.494Z,19.67
2022-11-16T21:59:17.219Z,16.47
2022-11-16T22:02:00.833Z,21.13
2022-11-16T22:04:47.193Z,18.53
2022-11-16T22:07:37.673Z,19.00
2022-11-16T22:10:09.456Z,19.17
2022-11-16T22:12:38.867Z,20.73
2022-11-16T22:15:10.146Z,21.23
2022-11-16T22:17:43.626Z,20.37
2022-11-16T22:20:12.680Z,23.50
2022-11-16T22:22:41.078Z,19.13
2022-11-16T22:25:10.701Z,21.93
2022-11-16T22:28:05.654Z,20.57
2022-11-16T22:30:29.188Z,25.83
2022-11-16T22:32:57.612Z,23.83
2022-11-16T22:35:26.038Z,25.30
2022-11-16T22:37:54.503Z,24.73
2022-11-16T22:40:22.976Z,25.47
2022-11-16T22:42:52.315Z,25.07
2022-11-16T22:45:20.703Z,29.23
2022-11-16T22:47:54.729Z,27.27
2022-11-16T22:50:24.291Z,28.27
2022-11-16T22:52:52.758Z,26.03
2022-11-16T22:55:21.149Z,28.47
2022-11-16T22:57:49.570Z,25.43
2022-11-16T23:00:19.904Z,24.17
2022-11-16T23:02:49.723Z,27.00
2022-11-16T23:05:18.140Z,28.57
2022-11-16T23:07:46.582Z,25.37
2022-11-16T23:10:15.695Z,22.67
2022-11-16T23:13:01.642Z,23.13
2022-11-16T23:15:47.825Z,22.80
2022-11-16T23:18:19.541Z,22.07
2022-11-16T23:21:05.774Z,25.80
2022-11-16T23:23:51.651Z,21.33
2022-11-16T23:26:42.245Z,21.20
2022-11-16T23:29:12.665Z,23.10
2022-11-16T23:31:41.076Z,23.30
2022-11-16T23:34:10.930Z,20.67
2022-11-16T23:36:39.404Z,18.90
2022-11-16T23:39:08.594Z,20.13
2022-11-16T23:41:54.963Z,17.83
2022-11-16T23:44:23.397Z,19.03
2022-11-16T23:46:51.805Z,19.37
2022-11-16T23:49:21.774Z,18.30
2022-11-16T23:51:50.277Z,18.07
2022-11-16T23:54:18.680Z,17.50
2022-11-16T23:56:47.113Z,16.30
2022-11-16T23:59:15.557Z,16.33
